createdAt,value
2019-03-23T00:00:01.192Z,67.85
2019-03-23T00:00:27.300Z,67.85
2019-03-23T00:00:53.404Z,67.37
2019-03-23T00:01:19.546Z,67.47
2019-03-23T00:01:45.653Z,67.56
2019-03-23T00:02:11.767Z,67.27
2019-03-23T00:02:37.872Z,67.66
2019-03-23T00:03:04.014Z,67.76
2019-03-23T00:03:30.122Z,67.94
2019-03-23T00:03:56.235Z,68.13
2019-03-23T00:04:22.360Z,67.94
2019-03-23T00:04:48.474Z,67.94
2019-03-23T00:05:14.604Z,67.66
2019-03-23T00:05:40.718Z,67.76
2019-03-23T00:06:06.820Z,67.85
2019-03-23T00:06:34.918Z,67.85
2019-03-23T00:07:01.031Z,68.29
2019-03-23T00:07:27.166Z,68.01
2019-03-23T00:07:53.308Z,67.85
2019-03-23T00:08:19.472Z,67.85
2019-03-23T00:08:45.611Z,67.94
2019-03-23T00:09:11.715Z,68.23
2019-03-23T00:09:37.832Z,67.94
2019-03-23T00:10:04.026Z,67.63
2019-03-23T00:10:30.143Z,68.1
2019-03-23T00:10:56.250Z,67.91
2019-03-23T00:11:22.359Z,68.01
2019-03-23T00:11:48.469Z,68.2
2019-03-23T00:12:14.578Z,67.82
2019-03-23T00:12:40.704Z,67.91
2019-03-23T00:13:06.838Z,67.76
2019-03-23T00:13:32.950Z,68.04
2019-03-23T00:13:59.048Z,67.82
2019-03-23T00:14:25.159Z,67.72
2019-03-23T00:14:51.264Z,67.85
2019-03-23T00:15:17.374Z,68.13
2019-03-23T00:15:43.479Z,68.71
2019-03-23T00:16:09.591Z,68.39
2019-03-23T00:16:35.697Z,68.9
2019-03-23T00:17:01.830Z,68.68
2019-03-23T00:17:27.964Z,68.68
2019-03-23T00:17:54.076Z,68.68
2019-03-23T00:18:20.242Z,68.77
2019-03-23T00:18:46.354Z,68.68
2019-03-23T00:19:12.462Z,68.2
2019-03-23T00:19:38.603Z,68.29
2019-03-23T00:20:04.740Z,68.58
2019-03-23T00:20:30.856Z,68.29
2019-03-23T00:20:56.997Z,68.29
2019-03-23T00:21:23.101Z,68.2
2019-03-23T00:21:49.212Z,68.68
2019-03-23T00:22:15.322Z,68.49
2019-03-23T00:22:41.459Z,68.49
2019-03-23T00:23:07.597Z,68.23
2019-03-23T00:23:33.729Z,68.49
2019-03-23T00:23:59.842Z,68.68
2019-03-23T00:24:25.948Z,68.39
2019-03-23T00:24:52.062Z,68.04
2019-03-23T00:25:18.195Z,67.94
2019-03-23T00:25:44.306Z,68.04
2019-03-23T00:26:10.436Z,68.04
2019-03-23T00:26:36.539Z,67.85
2019-03-23T00:27:02.648Z,67.66
2019-03-23T00:27:28.768Z,67.76
2019-03-23T00:27:54.868Z,68.23
2019-03-23T00:28:20.974Z,68.04
2019-03-23T00:28:47.088Z,68.13
2019-03-23T00:29:13.257Z,68.13
2019-03-23T00:29:39.365Z,68.23
2019-03-23T00:30:05.635Z,68.04
2019-03-23T00:30:31.738Z,67.85
2019-03-23T00:30:57.848Z,67.85
2019-03-23T00:31:23.955Z,67.94
2019-03-23T00:31:50.061Z,67.85
2019-03-23T00:32:16.177Z,67.76
2019-03-23T00:32:42.294Z,68.04
2019-03-23T00:33:08.398Z,68.04
2019-03-23T00:33:34.504Z,67.56
2019-03-23T00:34:00.614Z,68.13
2019-03-23T00:34:26.722Z,68.2
2019-03-23T00:34:52.832Z,68.01
2019-03-23T00:35:18.972Z,67.85
2019-03-23T00:35:45.108Z,68.1
2019-03-23T00:36:11.217Z,67.82
2019-03-23T00:36:41.216Z,68.1
2019-03-23T00:37:03.543Z,67.91
2019-03-23T00:37:29.653Z,68.58
2019-03-23T00:37:55.810Z,68.68
2019-03-23T00:38:21.902Z,68.39
2019-03-23T00:38:48.009Z,68.49
2019-03-23T00:39:14.149Z,68.1
2019-03-23T00:39:40.263Z,68.49
2019-03-23T00:40:06.363Z,68.68
2019-03-23T00:40:32.476Z,68.68
2019-03-23T00:40:59.081Z,68.39
2019-03-23T00:41:25.190Z,68.58
2019-03-23T00:41:51.328Z,68.1
2019-03-23T00:42:17.439Z,68.39
2019-03-23T00:42:43.574Z,68.68
2019-03-23T00:43:09.656Z,68.39
2019-03-23T00:43:35.764Z,68.49
2019-03-23T00:44:01.958Z,68.68
2019-03-23T00:44:28.444Z,68.77
2019-03-23T00:44:54.551Z,68.39
2019-03-23T00:45:20.665Z,68.58
2019-03-23T00:45:46.803Z,68.87
2019-03-23T00:46:12.914Z,68.68
2019-03-23T00:46:39.027Z,68.49
2019-03-23T00:47:05.130Z,68.96
2019-03-23T00:47:31.273Z,68.29
2019-03-23T00:47:57.378Z,68.58
2019-03-23T00:48:23.516Z,68.77
2019-03-23T00:48:49.650Z,68.49
2019-03-23T00:49:15.786Z,68.49
2019-03-23T00:49:41.904Z,68.58
2019-03-23T00:50:08.034Z,68.58
2019-03-23T00:50:34.137Z,68.49
2019-03-23T00:51:00.316Z,68.77
2019-03-23T00:51:26.480Z,68.77
2019-03-23T00:51:52.595Z,68.29
2019-03-23T00:52:18.717Z,68.58
2019-03-23T00:52:44.860Z,68.49
2019-03-23T00:53:10.995Z,68.68
2019-03-23T00:53:37.101Z,68.49
2019-03-23T00:54:03.213Z,68.77
2019-03-23T00:54:29.323Z,68.68
2019-03-23T00:54:55.429Z,68.77
2019-03-23T00:55:21.543Z,68.58
2019-03-23T00:55:47.677Z,69.35
2019-03-23T00:56:13.820Z,69.35
2019-03-23T00:56:39.934Z,68.68
2019-03-23T00:57:06.072Z,68.77
2019-03-23T00:57:32.182Z,68.68
2019-03-23T00:57:58.296Z,68.96
2019-03-23T00:58:24.394Z,68.77
2019-03-23T00:58:50.509Z,68.77
2019-03-23T00:59:16.616Z,68.93
2019-03-23T00:59:42.727Z,68.74
2019-03-23T01:00:08.832Z,69.06
2019-03-23T01:00:34.976Z,68.64
2019-03-23T01:01:01.106Z,69.06
2019-03-23T01:01:27.225Z,68.77
2019-03-23T01:01:53.329Z,68.77
2019-03-23T01:02:19.468Z,69.35
2019-03-23T01:02:46.590Z,68.84
2019-03-23T01:03:12.706Z,68.87
2019-03-23T01:03:38.867Z,68.74
2019-03-23T01:04:05.008Z,68.74
2019-03-23T01:04:31.109Z,68.64
2019-03-23T01:04:57.225Z,68.93
2019-03-23T01:05:23.356Z,68.84
2019-03-23T01:05:49.464Z,69.02
2019-03-23T01:06:15.569Z,68.93
2019-03-23T01:06:51.929Z,68.74
2019-03-23T01:07:11.861Z,68.64
2019-03-23T01:07:37.969Z,68.64
2019-03-23T01:08:04.076Z,68.84
2019-03-23T01:08:30.182Z,68.84
2019-03-23T01:08:56.288Z,68.93
2019-03-23T01:09:22.394Z,68.84
2019-03-23T01:09:48.506Z,68.74
2019-03-23T01:10:14.617Z,68.84
2019-03-23T01:10:40.724Z,68.93
2019-03-23T01:11:06.827Z,68.93
2019-03-23T01:11:32.969Z,69.02
2019-03-23T01:11:59.081Z,69.21
2019-03-23T01:12:25.186Z,68.84
2019-03-23T01:12:51.329Z,68.93
2019-03-23T01:13:17.468Z,68.93
2019-03-23T01:13:43.579Z,68.64
2019-03-23T01:14:09.683Z,68.55
2019-03-23T01:14:35.789Z,68.74
2019-03-23T01:15:01.902Z,68.84
2019-03-23T01:15:28.017Z,68.93
2019-03-23T01:15:54.140Z,69.5
2019-03-23T01:16:20.253Z,68.74
2019-03-23T01:16:46.371Z,69.5
2019-03-23T01:17:12.494Z,69.12
2019-03-23T01:17:38.604Z,69.41
2019-03-23T01:18:04.746Z,69.5
2019-03-23T01:18:30.851Z,69.5
2019-03-23T01:18:56.983Z,69.31
2019-03-23T01:19:23.098Z,69.12
2019-03-23T01:19:49.210Z,69.21
2019-03-23T01:20:15.338Z,69.41
2019-03-23T01:20:49.248Z,69.02
2019-03-23T01:21:08.593Z,69.89
2019-03-23T01:21:34.724Z,69.79
2019-03-23T01:22:00.837Z,69.7
2019-03-23T01:22:26.949Z,69.47
2019-03-23T01:22:53.052Z,70.23
2019-03-23T01:23:19.161Z,70.33
2019-03-23T01:23:45.274Z,70.42
2019-03-23T01:24:11.409Z,70.23
2019-03-23T01:24:37.517Z,70.33
2019-03-23T01:25:03.621Z,70.71
2019-03-23T01:25:30.721Z,70.81
2019-03-23T01:25:56.860Z,70.81
2019-03-23T01:26:23.058Z,70.81
2019-03-23T01:26:49.169Z,70.71
2019-03-23T01:27:15.275Z,70.61
2019-03-23T01:27:41.382Z,71.28
2019-03-23T01:28:07.521Z,71.28
2019-03-23T01:28:33.662Z,71.92
2019-03-23T01:28:59.762Z,71.86
2019-03-23T01:29:25.873Z,72.2
2019-03-23T01:29:51.980Z,72.3
2019-03-23T01:30:18.121Z,72.49
2019-03-23T01:30:44.228Z,72.49
2019-03-23T01:31:10.362Z,72.68
2019-03-23T01:31:36.464Z,72.58
2019-03-23T01:32:02.576Z,72.39
2019-03-23T01:32:28.680Z,72.87
2019-03-23T01:32:54.788Z,73.07
2019-03-23T01:33:20.900Z,73.92
2019-03-23T01:33:47.066Z,73.25
2019-03-23T01:34:13.178Z,73.44
2019-03-23T01:34:39.286Z,73.54
2019-03-23T01:35:05.488Z,73.54
2019-03-23T01:35:31.598Z,73.63
2019-03-23T01:35:57.734Z,73.63
2019-03-23T01:36:23.847Z,73.25
2019-03-23T01:36:49.959Z,73.07
2019-03-23T01:37:18.053Z,74.02
2019-03-23T01:37:44.161Z,74.11
2019-03-23T01:38:10.297Z,74.69
2019-03-23T01:38:36.433Z,74.78
2019-03-23T01:39:02.535Z,74.78
2019-03-23T01:39:28.681Z,74.59
2019-03-23T01:39:54.794Z,74.4
2019-03-23T01:40:20.929Z,74.49
2019-03-23T01:40:47.045Z,74.49
2019-03-23T01:41:13.175Z,74.49
2019-03-23T01:41:39.285Z,74.69
2019-03-23T01:42:05.391Z,74.49
2019-03-23T01:42:31.505Z,75.07
2019-03-23T01:42:57.609Z,74.98
2019-03-23T01:43:23.746Z,75.16
2019-03-23T01:43:49.850Z,75.35
2019-03-23T01:44:15.959Z,75.35
2019-03-23T01:44:42.070Z,75.35
2019-03-23T01:45:08.178Z,75.07
2019-03-23T01:45:34.288Z,75.16
2019-03-23T01:46:00.452Z,74.98
2019-03-23T01:46:26.563Z,75.54
2019-03-23T01:46:52.695Z,76.21
2019-03-23T01:47:18.803Z,76.12
2019-03-23T01:47:44.914Z,76.4
2019-03-23T01:48:11.028Z,76.18
2019-03-23T01:48:37.169Z,76.27
2019-03-23T01:49:03.278Z,76.94
2019-03-23T01:49:29.391Z,76.94
2019-03-23T01:49:55.528Z,76.94
2019-03-23T01:50:21.672Z,76.75
2019-03-23T01:50:47.778Z,77.23
2019-03-23T01:51:13.885Z,76.65
2019-03-23T01:51:40.023Z,76.46
2019-03-23T01:52:06.133Z,76.84
2019-03-23T01:52:32.249Z,77.03
2019-03-23T01:52:58.358Z,77.42
2019-03-23T01:53:24.469Z,77.42
2019-03-23T01:53:50.611Z,78.18
2019-03-23T01:54:16.716Z,78.47
2019-03-23T01:54:42.829Z,78.37
2019-03-23T01:55:08.942Z,78.56
2019-03-23T01:55:35.049Z,78.91
2019-03-23T01:56:01.164Z,79.43
2019-03-23T01:56:27.265Z,79.57
2019-03-23T01:56:53.415Z,79.19
2019-03-23T01:57:19.522Z,79.96
2019-03-23T01:57:45.633Z,80.24
2019-03-23T01:58:11.739Z,80.05
2019-03-23T01:58:37.843Z,80.43
2019-03-23T01:59:04.009Z,80.53
2019-03-23T01:59:30.118Z,80.53
2019-03-23T01:59:56.226Z,81.01
2019-03-23T02:00:22.339Z,81.1
2019-03-23T02:00:48.458Z,80.72
2019-03-23T02:01:14.558Z,81.77
2019-03-23T02:01:40.673Z,82.15
2019-03-23T02:02:06.781Z,82.06
2019-03-23T02:02:32.884Z,82.34
2019-03-23T02:02:58.991Z,81.77
2019-03-23T02:03:25.106Z,81.96
2019-03-23T02:03:51.242Z,81.58
2019-03-23T02:04:17.353Z,81.96
2019-03-23T02:04:43.463Z,81.77
2019-03-23T02:05:09.607Z,81.67
2019-03-23T02:05:35.712Z,81.67
2019-03-23T02:06:01.816Z,81.77
2019-03-23T02:06:27.928Z,81.77
2019-03-23T02:06:54.035Z,81.96
2019-03-23T02:07:20.188Z,82.15
2019-03-23T02:07:46.295Z,82.53
2019-03-23T02:08:12.405Z,82.24
2019-03-23T02:08:38.510Z,82.87
2019-03-23T02:09:04.615Z,83.16
2019-03-23T02:09:30.735Z,83.35
2019-03-23T02:09:56.873Z,84.01
2019-03-23T02:10:22.984Z,83.92
2019-03-23T02:10:49.086Z,84.2
2019-03-23T02:11:15.199Z,84.59
2019-03-23T02:11:41.305Z,84.3
2019-03-23T02:12:07.411Z,84.11
2019-03-23T02:12:33.543Z,84.49
2019-03-23T02:12:59.643Z,84.49
2019-03-23T02:13:25.759Z,84.2
2019-03-23T02:13:51.862Z,84.4
2019-03-23T02:14:17.999Z,84.49
2019-03-23T02:14:44.122Z,84.4
2019-03-23T02:15:10.265Z,84.49
2019-03-23T02:15:36.406Z,84.49
2019-03-23T02:16:02.512Z,84.97
2019-03-23T02:16:28.612Z,84.2
2019-03-23T02:16:54.721Z,84.59
2019-03-23T02:17:20.830Z,84.4
2019-03-23T02:17:46.932Z,84.49
2019-03-23T02:18:13.043Z,84.74
2019-03-23T02:18:39.151Z,84.59
2019-03-23T02:19:05.255Z,84.49
2019-03-23T02:19:31.394Z,84.78
2019-03-23T02:19:57.542Z,84.78
2019-03-23T02:20:23.642Z,84.78
2019-03-23T02:20:49.750Z,84.69
2019-03-23T02:21:15.852Z,84.78
2019-03-23T02:21:41.966Z,84.64
2019-03-23T02:22:08.070Z,84.55
2019-03-23T02:22:34.183Z,85.41
2019-03-23T02:23:00.288Z,85.12
2019-03-23T02:23:26.398Z,85.31
2019-03-23T02:23:52.501Z,85.5
2019-03-23T02:24:18.609Z,85.12
2019-03-23T02:24:44.720Z,85.21
2019-03-23T02:25:10.823Z,85.02
2019-03-23T02:25:36.926Z,85.31
2019-03-23T02:26:03.035Z,85.12
2019-03-23T02:26:29.150Z,85.31
2019-03-23T02:26:55.258Z,85.12
2019-03-23T02:27:21.363Z,85.69
2019-03-23T02:27:47.494Z,85.6
2019-03-23T02:28:13.598Z,85.78
2019-03-23T02:28:39.706Z,85.12
2019-03-23T02:29:05.815Z,85.31
2019-03-23T02:29:31.919Z,84.64
2019-03-23T02:29:58.027Z,84.64
2019-03-23T02:30:24.168Z,84.55
2019-03-23T02:30:50.362Z,84.55
2019-03-23T02:31:17.470Z,84.64
2019-03-23T02:31:43.595Z,84.64
2019-03-23T02:32:09.785Z,84.74
2019-03-23T02:32:35.837Z,84.64
2019-03-23T02:33:01.976Z,84.74
2019-03-23T02:33:28.172Z,85.5
2019-03-23T02:33:54.286Z,85.21
2019-03-23T02:34:20.453Z,85.31
2019-03-23T02:34:46.588Z,85.41
2019-03-23T02:35:12.789Z,85.5
2019-03-23T02:35:38.924Z,85.12
2019-03-23T02:36:05.059Z,85.12
2019-03-23T02:36:31.253Z,84.92
2019-03-23T02:36:57.422Z,85.12
2019-03-23T02:37:27.852Z,85.88
2019-03-23T02:37:51.623Z,85.69
2019-03-23T02:38:17.729Z,84.92
2019-03-23T02:38:43.893Z,85.02
2019-03-23T02:39:10.052Z,85.31
2019-03-23T02:39:36.188Z,85.12
2019-03-23T02:40:02.300Z,85.21
2019-03-23T02:40:28.439Z,84.64
2019-03-23T02:40:54.562Z,84.74
2019-03-23T02:41:20.693Z,85.02
2019-03-23T02:41:46.790Z,84.64
2019-03-23T02:42:12.933Z,84.45
2019-03-23T02:42:39.040Z,84.4
2019-03-23T02:43:05.241Z,84.4
2019-03-23T02:43:31.350Z,84.11
2019-03-23T02:43:57.506Z,83.4
2019-03-23T02:44:23.614Z,83.69
2019-03-23T02:44:49.808Z,83.21
2019-03-23T02:45:16.011Z,83.78
2019-03-23T02:45:42.119Z,83.88
2019-03-23T02:46:08.260Z,83.97
2019-03-23T02:46:34.396Z,84.55
2019-03-23T02:47:00.606Z,84.74
2019-03-23T02:47:26.716Z,85.5
2019-03-23T02:47:52.852Z,85.12
2019-03-23T02:48:18.959Z,85.69
2019-03-23T02:48:45.082Z,85.97
2019-03-23T02:49:11.182Z,85.88
2019-03-23T02:49:37.378Z,85.6
2019-03-23T02:50:03.526Z,85.41
2019-03-23T02:50:29.665Z,85.88
2019-03-23T02:50:55.789Z,85.84
2019-03-23T02:51:21.910Z,85.69
2019-03-23T02:51:48.989Z,85.55
2019-03-23T02:52:15.126Z,85.88
2019-03-23T02:52:41.237Z,85.78
2019-03-23T02:53:07.369Z,85.5
2019-03-23T02:53:33.509Z,85.88
2019-03-23T02:53:59.626Z,85.88
2019-03-23T02:54:25.776Z,85.31
2019-03-23T02:54:51.891Z,85.5
2019-03-23T02:55:18.074Z,85.5
2019-03-23T02:55:44.190Z,85.5
2019-03-23T02:56:10.326Z,84.45
2019-03-23T02:56:36.459Z,85.31
2019-03-23T02:57:02.609Z,85.12
2019-03-23T02:57:28.766Z,85.02
2019-03-23T02:57:54.911Z,85.02
2019-03-23T02:58:21.082Z,85.02
2019-03-23T02:58:47.213Z,85.21
2019-03-23T02:59:13.349Z,85.31
2019-03-23T02:59:39.489Z,85.21
2019-03-23T03:00:05.639Z,85.02
2019-03-23T03:00:31.774Z,85.31
2019-03-23T03:00:57.942Z,85.12
2019-03-23T03:01:24.076Z,85.41
2019-03-23T03:01:50.188Z,85.02
2019-03-23T03:02:16.292Z,84.64
2019-03-23T03:02:42.430Z,84.64
2019-03-23T03:03:08.601Z,84.64
2019-03-23T03:03:34.746Z,84.55
2019-03-23T03:04:00.842Z,84.64
2019-03-23T03:04:26.955Z,84.36
2019-03-23T03:04:53.058Z,84.74
2019-03-23T03:05:19.204Z,84.07
2019-03-23T03:05:45.399Z,84.74
2019-03-23T03:06:11.538Z,84.45
2019-03-23T03:06:37.713Z,84.55
2019-03-23T03:07:03.846Z,84.64
2019-03-23T03:07:40.950Z,84.45
2019-03-23T03:07:59.055Z,84.07
2019-03-23T03:08:25.192Z,83.69
2019-03-23T03:08:51.296Z,84.55
2019-03-23T03:09:17.412Z,84.45
2019-03-23T03:09:43.549Z,84.36
2019-03-23T03:10:09.716Z,84.16
2019-03-23T03:10:35.818Z,83.97
2019-03-23T03:11:02.004Z,83.97
2019-03-23T03:11:28.107Z,84.36
2019-03-23T03:11:54.287Z,83.88
2019-03-23T03:12:20.388Z,84.45
2019-03-23T03:12:46.491Z,84.26
2019-03-23T03:13:12.597Z,84.26
2019-03-23T03:13:38.707Z,84.16
2019-03-23T03:14:04.818Z,84.45
2019-03-23T03:14:31.011Z,83.78
2019-03-23T03:14:57.102Z,84.07
2019-03-23T03:15:23.215Z,83.88
2019-03-23T03:15:49.322Z,83.59
2019-03-23T03:16:15.462Z,84.16
2019-03-23T03:16:41.611Z,84.16
2019-03-23T03:17:07.792Z,83.88
2019-03-23T03:17:33.931Z,84.07
2019-03-23T03:18:00.060Z,83.97
2019-03-23T03:18:26.172Z,84.16
2019-03-23T03:18:52.366Z,84.36
2019-03-23T03:19:18.500Z,84.07
2019-03-23T03:19:44.666Z,84.55
2019-03-23T03:20:10.773Z,83.84
2019-03-23T03:20:36.914Z,84.5
2019-03-23T03:21:03.043Z,84.88
2019-03-23T03:21:29.131Z,85.27
2019-03-23T03:21:55.315Z,85.36
2019-03-23T03:22:21.441Z,84.98
2019-03-23T03:22:47.575Z,85.55
2019-03-23T03:23:13.739Z,85.74
2019-03-23T03:23:39.855Z,85.46
2019-03-23T03:24:06.023Z,85.64
2019-03-23T03:24:32.123Z,85.17
2019-03-23T03:24:58.234Z,85.64
2019-03-23T03:25:24.340Z,85.93
2019-03-23T03:25:50.472Z,85.74
2019-03-23T03:26:16.595Z,85.84
2019-03-23T03:26:42.731Z,85.93
2019-03-23T03:27:08.924Z,85.46
2019-03-23T03:27:35.031Z,86.07
2019-03-23T03:28:01.197Z,85.78
2019-03-23T03:28:27.301Z,85.17
2019-03-23T03:28:53.442Z,84.79
2019-03-23T03:29:19.578Z,84.88
2019-03-23T03:29:45.709Z,84.69
2019-03-23T03:30:11.852Z,84.41
2019-03-23T03:30:38.048Z,84.88
2019-03-23T03:31:04.169Z,84.07
2019-03-23T03:31:30.343Z,84.69
2019-03-23T03:31:56.442Z,84.79
2019-03-23T03:32:22.580Z,85.41
2019-03-23T03:32:48.715Z,85.31
2019-03-23T03:33:14.883Z,85.12
2019-03-23T03:33:41.050Z,84.36
2019-03-23T03:34:07.248Z,84.36
2019-03-23T03:34:33.410Z,83.4
2019-03-23T03:34:59.516Z,83.31
2019-03-23T03:35:25.674Z,83.5
2019-03-23T03:35:51.808Z,83.12
2019-03-23T03:36:17.916Z,83.12
2019-03-23T03:36:45.019Z,83.31
2019-03-23T03:37:11.133Z,83.5
2019-03-23T03:37:37.306Z,83.31
2019-03-23T03:38:06.377Z,83.59
2019-03-23T03:38:32.522Z,83.21
2019-03-23T03:38:58.651Z,83.31
2019-03-23T03:39:24.760Z,83.5
2019-03-23T03:39:50.873Z,83.4
2019-03-23T03:40:17.004Z,83.02
2019-03-23T03:40:43.170Z,83.02
2019-03-23T03:41:09.309Z,83.21
2019-03-23T03:41:35.467Z,83.4
2019-03-23T03:42:01.588Z,83.4
2019-03-23T03:42:27.736Z,82.92
2019-03-23T03:42:53.896Z,82.64
2019-03-23T03:43:20.020Z,82.73
2019-03-23T03:43:46.168Z,82.45
2019-03-23T03:44:12.304Z,82.83
2019-03-23T03:44:38.440Z,82.83
2019-03-23T03:45:04.610Z,82.64
2019-03-23T03:45:30.749Z,82.45
2019-03-23T03:45:56.885Z,82.73
2019-03-23T03:46:23.054Z,82.73
2019-03-23T03:46:49.163Z,83.02
2019-03-23T03:47:15.321Z,82.17
2019-03-23T03:47:41.574Z,82.26
2019-03-23T03:48:07.560Z,82.64
2019-03-23T03:48:33.688Z,82.64
2019-03-23T03:49:11.674Z,82.5
2019-03-23T03:49:27.941Z,83.07
2019-03-23T03:49:54.048Z,83.45
2019-03-23T03:50:20.245Z,83.93
2019-03-23T03:50:46.349Z,83.74
2019-03-23T03:51:12.482Z,83.74
2019-03-23T03:51:38.595Z,83.74
2019-03-23T03:52:04.733Z,84.03
2019-03-23T03:52:30.859Z,83.93
2019-03-23T03:52:57.004Z,84.6
2019-03-23T03:53:23.175Z,84.12
2019-03-23T03:53:49.350Z,83.93
2019-03-23T03:54:15.505Z,84.12
2019-03-23T03:54:41.616Z,83.65
2019-03-23T03:55:07.744Z,83.65
2019-03-23T03:55:33.890Z,84.12
2019-03-23T03:56:00.046Z,83.65
2019-03-23T03:56:26.156Z,84.12
2019-03-23T03:56:52.254Z,84.41
2019-03-23T03:57:18.393Z,84.5
2019-03-23T03:57:44.557Z,84.22
2019-03-23T03:58:10.666Z,84.12
2019-03-23T03:58:36.777Z,83.93
2019-03-23T03:59:02.918Z,84.03
2019-03-23T03:59:29.069Z,84.41
2019-03-23T03:59:55.163Z,84.79
2019-03-23T04:00:21.436Z,84.41
2019-03-23T04:00:47.575Z,84.69
2019-03-23T04:01:13.707Z,84.69
2019-03-23T04:01:39.817Z,85.46
2019-03-23T04:02:05.985Z,84.5
2019-03-23T04:02:32.093Z,84.69
2019-03-23T04:02:58.199Z,84.5
2019-03-23T04:03:24.338Z,84.22
2019-03-23T04:03:50.425Z,83.93
2019-03-23T04:04:16.593Z,84.6
2019-03-23T04:04:42.754Z,84.79
2019-03-23T04:05:08.965Z,84.6
2019-03-23T04:05:35.069Z,85.17
2019-03-23T04:06:01.202Z,85.36
2019-03-23T04:06:27.311Z,84.98
2019-03-23T04:06:53.472Z,85.03
2019-03-23T04:07:19.578Z,85.03
2019-03-23T04:07:45.705Z,85.51
2019-03-23T04:08:13.847Z,85.64
2019-03-23T04:08:39.951Z,85.03
2019-03-23T04:09:06.057Z,84.88
2019-03-23T04:09:32.161Z,84.84
2019-03-23T04:09:58.288Z,85.13
2019-03-23T04:10:24.426Z,85.7
2019-03-23T04:10:50.585Z,85.7
2019-03-23T04:11:16.738Z,86.08
2019-03-23T04:11:42.928Z,86.08
2019-03-23T04:12:09.044Z,86.36
2019-03-23T04:12:35.185Z,86.27
2019-03-23T04:13:01.318Z,86.75
2019-03-23T04:13:27.456Z,86.65
2019-03-23T04:13:53.595Z,86.65
2019-03-23T04:14:20.251Z,86.46
2019-03-23T04:14:46.852Z,86.84
2019-03-23T04:15:12.967Z,86.65
2019-03-23T04:15:39.066Z,86.55
2019-03-23T04:16:05.589Z,86.46
2019-03-23T04:16:32.001Z,86.36
2019-03-23T04:16:58.645Z,86.08
2019-03-23T04:17:24.875Z,86.18
2019-03-23T04:17:51.035Z,85.99
2019-03-23T04:18:17.386Z,86.75
2019-03-23T04:18:43.505Z,87.41
2019-03-23T04:19:09.897Z,87.41
2019-03-23T04:19:36.837Z,86.94
2019-03-23T04:20:03.107Z,87.03
2019-03-23T04:20:29.278Z,87.32
2019-03-23T04:20:55.783Z,87.41
2019-03-23T04:21:22.083Z,87.13
2019-03-23T04:21:48.386Z,87.23
2019-03-23T04:22:14.987Z,87.13
2019-03-23T04:22:41.480Z,87.32
2019-03-23T04:23:07.848Z,86.75
2019-03-23T04:23:34.483Z,86.65
2019-03-23T04:24:00.883Z,86.84
2019-03-23T04:24:27.024Z,86.84
2019-03-23T04:24:53.550Z,86.84
2019-03-23T04:25:19.913Z,86.65
2019-03-23T04:25:46.408Z,87.32
2019-03-23T04:26:13.376Z,87.03
2019-03-23T04:26:39.599Z,87.13
2019-03-23T04:27:05.718Z,87.23
2019-03-23T04:27:32.122Z,86.94
2019-03-23T04:27:59.009Z,86.55
2019-03-23T04:28:25.127Z,86.75
2019-03-23T04:28:51.387Z,86.65
2019-03-23T04:29:18.086Z,87.13
2019-03-23T04:29:44.416Z,87.13
2019-03-23T04:30:10.857Z,87.32
2019-03-23T04:30:37.459Z,87.32
2019-03-23T04:31:03.659Z,87.41
2019-03-23T04:31:29.787Z,86.75
2019-03-23T04:31:57.042Z,86.65
2019-03-23T04:32:23.307Z,86.36
2019-03-23T04:32:49.496Z,86.84
2019-03-23T04:33:15.656Z,86.75
2019-03-23T04:33:41.819Z,87.32
2019-03-23T04:34:07.926Z,87.23
2019-03-23T04:34:34.625Z,87.03
2019-03-23T04:35:01.482Z,87.32
2019-03-23T04:35:27.761Z,87.41
2019-03-23T04:35:54.304Z,86.94
2019-03-23T04:36:20.508Z,86.75
2019-03-23T04:36:47.431Z,86.84
2019-03-23T04:37:13.569Z,86.65
2019-03-23T04:37:39.808Z,86.84
2019-03-23T04:38:06.007Z,86.46
2019-03-23T04:38:33.510Z,86.55
2019-03-23T04:38:59.650Z,86.36
2019-03-23T04:39:25.967Z,86.84
2019-03-23T04:39:52.610Z,87.13
2019-03-23T04:40:19.637Z,87.13
2019-03-23T04:40:45.808Z,87.32
2019-03-23T04:41:12.017Z,87.23
2019-03-23T04:41:38.260Z,87.23
2019-03-23T04:42:04.550Z,87.32
2019-03-23T04:42:31.033Z,87.23
2019-03-23T04:42:57.197Z,87.41
2019-03-23T04:43:23.318Z,87.32
2019-03-23T04:43:49.749Z,87.23
2019-03-23T04:44:16.012Z,87.03
2019-03-23T04:44:42.522Z,87.32
2019-03-23T04:45:09.269Z,87.32
2019-03-23T04:45:35.335Z,86.75
2019-03-23T04:46:01.453Z,86.94
2019-03-23T04:46:27.569Z,86.75
2019-03-23T04:46:54.853Z,86.94
2019-03-23T04:47:21.821Z,86.84
2019-03-23T04:47:48.326Z,87.23
2019-03-23T04:48:14.586Z,87.13
2019-03-23T04:49:07.903Z,87.03
2019-03-23T04:49:34.379Z,87.13
2019-03-23T04:50:00.804Z,87.23
2019-03-23T04:50:27.292Z,87.13
2019-03-23T04:50:53.590Z,86.94
2019-03-23T04:51:19.753Z,86.94
2019-03-23T04:51:46.057Z,86.94
2019-03-23T04:52:12.498Z,86.75
2019-03-23T04:52:38.930Z,86.75
2019-03-23T04:53:05.647Z,86.46
2019-03-23T04:53:32.173Z,86.75
2019-03-23T04:53:58.353Z,86.65
2019-03-23T04:54:25.123Z,87.13
2019-03-23T04:54:52.045Z,87.03
2019-03-23T04:55:18.676Z,87.03
2019-03-23T04:55:45.091Z,87.23
2019-03-23T04:56:11.197Z,87.13
2019-03-23T04:56:37.378Z,87.6
2019-03-23T04:57:03.524Z,87.7
2019-03-23T04:57:29.608Z,87.7
2019-03-23T04:57:55.741Z,87.41
2019-03-23T04:58:21.852Z,87.51
2019-03-23T04:58:47.961Z,87.23
2019-03-23T04:59:14.102Z,87.03
2019-03-23T04:59:40.198Z,87.98
2019-03-23T05:00:06.313Z,87.98
2019-03-23T05:00:32.425Z,87.6
2019-03-23T05:00:58.557Z,87.51
2019-03-23T05:01:24.720Z,87.03
2019-03-23T05:01:50.832Z,87.32
2019-03-23T05:02:16.936Z,87.23
2019-03-23T05:02:43.073Z,87.41
2019-03-23T05:03:09.180Z,87.41
2019-03-23T05:03:35.318Z,87.41
2019-03-23T05:04:01.443Z,87.6
2019-03-23T05:04:27.551Z,87.32
2019-03-23T05:04:53.681Z,87.51
2019-03-23T05:05:19.794Z,87.79
2019-03-23T05:05:45.898Z,88.37
2019-03-23T05:06:12.034Z,87.79
2019-03-23T05:06:38.177Z,87.89
2019-03-23T05:07:04.273Z,87.98
2019-03-23T05:07:30.485Z,87.98
2019-03-23T05:07:56.577Z,87.41
2019-03-23T05:08:29.165Z,87.13
2019-03-23T05:08:50.780Z,87.51
2019-03-23T05:09:16.919Z,87.41
2019-03-23T05:09:43.041Z,87.03
2019-03-23T05:10:09.154Z,87.32
2019-03-23T05:10:35.267Z,87.03
2019-03-23T05:11:01.377Z,87.23
2019-03-23T05:11:27.486Z,87.41
2019-03-23T05:11:53.666Z,87.03
2019-03-23T05:12:19.737Z,87.13
2019-03-23T05:12:45.841Z,86.84
2019-03-23T05:13:11.976Z,86.65
2019-03-23T05:13:38.094Z,86.55
2019-03-23T05:14:04.235Z,86.36
2019-03-23T05:14:30.339Z,85.99
2019-03-23T05:14:56.448Z,86.27
2019-03-23T05:15:22.555Z,85.89
2019-03-23T05:15:48.663Z,86.08
2019-03-23T05:16:14.768Z,86.65
2019-03-23T05:16:40.879Z,87.13
2019-03-23T05:17:06.980Z,87.13
2019-03-23T05:17:33.098Z,87.41
2019-03-23T05:17:59.227Z,87.6
2019-03-23T05:18:25.363Z,87.23
2019-03-23T05:18:51.476Z,87.13
2019-03-23T05:19:17.583Z,87.23
2019-03-23T05:19:43.697Z,86.94
2019-03-23T05:20:09.808Z,87.23
2019-03-23T05:20:35.918Z,87.23
2019-03-23T05:21:02.027Z,87.23
2019-03-23T05:21:28.166Z,87.13
2019-03-23T05:21:54.268Z,87.23
2019-03-23T05:22:20.412Z,87.23
2019-03-23T05:22:46.518Z,86.84
2019-03-23T05:23:12.632Z,87.03
2019-03-23T05:23:38.735Z,86.94
2019-03-23T05:24:05.832Z,86.75
2019-03-23T05:24:31.935Z,86.94
2019-03-23T05:24:58.046Z,86.55
2019-03-23T05:25:24.148Z,86.65
2019-03-23T05:25:50.259Z,86.75
2019-03-23T05:26:16.373Z,87.41
2019-03-23T05:26:42.480Z,87.13
2019-03-23T05:27:08.589Z,87.41
2019-03-23T05:27:34.699Z,86.94
2019-03-23T05:28:00.800Z,86.94
2019-03-23T05:28:26.908Z,87.13
2019-03-23T05:28:53.022Z,87.03
2019-03-23T05:29:19.125Z,87.03
2019-03-23T05:29:45.238Z,86.94
2019-03-23T05:30:11.371Z,86.65
2019-03-23T05:30:37.482Z,86.75
2019-03-23T05:31:03.588Z,86.84
2019-03-23T05:31:29.701Z,86.84
2019-03-23T05:31:55.809Z,86.94
2019-03-23T05:32:21.938Z,87.13
2019-03-23T05:32:48.050Z,86.75
2019-03-23T05:33:14.156Z,86.75
2019-03-23T05:33:40.270Z,86.84
2019-03-23T05:34:06.401Z,86.75
2019-03-23T05:34:32.510Z,86.75
2019-03-23T05:34:58.641Z,86.75
2019-03-23T05:35:24.751Z,87.23
2019-03-23T05:35:50.864Z,87.41
2019-03-23T05:36:16.959Z,87.03
2019-03-23T05:36:43.069Z,87.03
2019-03-23T05:37:09.206Z,87.13
2019-03-23T05:37:35.311Z,87.23
2019-03-23T05:38:01.420Z,87.03
2019-03-23T05:38:27.555Z,86.94